Time;durP1;ratioP1;P1;durP2;ratioP2;P2;SDS_P1;SDS_P2;PMS_P1;PMS_P2;Temp;Humidity;BMP_temperature;BMP_pressure;BME280_temperature;BME280_humidity;BME280_pressure;Samples;Min_cycle;Max_cycle;Signal;HPM_P1;HPM_P2
2021/07/20 00:00:21;;;;;;;;;;;;;;;;;;2090718;28;766;-77
2021/07/20 00:01:21;;;;;;;;;;;;;;;;;;2090854;28;934;-78
2021/07/20 00:02:25;;;;;;;;;;;;;;;;;;2091439;28;949;-76
2021/07/20 00:03:26;;;;;;;;;;;;;;;;;;2091479;28;901;-77
2021/07/20 00:04:28;;;;;;;;;;;;;;;;;;2091576;28;899;-78
2021/07/20 00:05:29;;;;;;;;;;;;;;;;;;2091400;28;844;-77
2021/07/20 00:06:31;;;;;;;;;;;;;;;;;;2091416;28;851;-78
2021/07/20 00:07:32;;;;;;;;;;;;;;;;;;2091561;28;833;-79
2021/07/20 00:08:33;;;;;;;;;;;;;;;;;;2090762;28;827;-79
2021/07/20 00:09:34;;;;;;;;;;;;;;;;;;2090799;28;853;-76
2021/07/20 00:10:38;;;;;;;;;;;;;;;;;;2091534;28;834;-78
2021/07/20 00:11:39;;;;;;;;;;;;;;;;;;2091403;28;1894;-76
2021/07/20 00:12:41;;;;;;;;;;;;;;;;;;2090727;28;865;-76
2021/07/20 00:13:42;;;;;;;;;;;;;;;;;;2090902;28;890;-75
2021/07/20 00:14:44;;;;;;;;;;;;;;;;;;2091390;28;903;-76
2021/07/20 00:15:46;;;;;;;;;;;;;;;;;;2091367;28;863;-77
2021/07/20 00:16:47;;;;;;;;;;;;;;;;;;2091745;28;1454;-78
2021/07/20 00:17:50;;;;;;;;;;;;;;;;;;2092345;28;934;-76
2021/07/20 00:18:52;;;;;;;;;;;;;;;;;;2092938;28;953;-76
2021/07/20 00:19:53;;;;;;;;;;;;;;;;;;2092931;28;858;-77
2021/07/20 00:20:55;;;;;;;;;;;;;;;;;;2093832;28;923;-76
2021/07/20 00:21:56;;;;;;;;;;;;;;;;;;2094441;28;891;-75
2021/07/20 00:22:58;;;;;;;;;;;;;;;;;;2094175;28;880;-76
2021/07/20 00:23:59;;;;;;;;;;;;;;;;;;2093242;28;900;-77
2021/07/20 00:25:00;;;;;;;;;;;;;;;;;;2092891;28;906;-77
2021/07/20 00:26:02;;;;;;;;;;;;;;;;;;2092209;28;1352;-76
2021/07/20 00:27:03;;;;;;;;;;;;;;;;;;2092272;28;831;-79
2021/07/20 00:28:04;;;;;;;;;;;;;;;;;;2092973;28;862;-78
2021/07/20 00:29:06;;;;;;;;;;;;;;;;;;2092852;28;867;-78
2021/07/20 00:30:08;;;;;;;;;;;;;;;;;;2092874;28;891;-76
2021/07/20 00:31:09;;;;;;;;;;;;;;;;;;2092896;28;1902;-77
2021/07/20 00:32:10;;;;;;;;;;;;;;;;;;2092146;28;921;-77
2021/07/20 00:33:14;;;;;;;;;;;;;;;;;;2092359;28;945;-77
2021/07/20 00:34:14;;;;;;;;;;;;;;;;;;2093040;28;823;-77
2021/07/20 00:35:16;;;;;;;;;;;;;;;;;;2092520;28;1567;-79
2021/07/20 00:36:17;;;;;;;;;;;;;;;;;;2083896;28;1223;-77
2021/07/20 00:37:19;;;;;;;;;;;;;;;;;;2092215;28;874;-79
2021/07/20 00:38:20;;;;;;;;;;;;;;;;;;2092043;28;1377;-78
2021/07/20 00:39:26;;;;;;;;;;;;;;;;;;2092416;28;823;-79
2021/07/20 00:40:28;;;;;;;;;;;;;;;;;;2091964;28;1237;-79
2021/07/20 00:41:33;;;;;;;;;;;;;;;;;;2092086;28;1191;-78
2021/07/20 00:42:34;;;;;;;;;;;;;;;;;;2083867;28;1243;-79
2021/07/20 00:43:36;;;;;;;;;;;;;;;;;;2092138;28;1487;-77
2021/07/20 00:44:36;;;;;;;;;;;;;;;;;;2083834;28;1233;-79
2021/07/20 00:45:41;;;;;;;;;;;;;;;;;;2092122;28;923;-78
2021/07/20 00:46:42;;;;;;;;;;;;;;;;;;2092736;28;867;-77
2021/07/20 00:47:44;;;;;;;;;;;;;;;;;;2092062;28;1373;-77
2021/07/20 00:48:47;;;;;;;;;;;;;;;;;;2092131;28;869;-77
2021/07/20 00:50:00;;;;;;;;;;;;;;;;;;2092808;28;895;-79
2021/07/20 00:51:02;;;;;;;;;;;;;;;;;;2092023;28;1375;-79
2021/07/20 00:52:03;;;;;;;;;;;;;;;;;;2083678;28;1918;-78
2021/07/20 00:53:05;;;;;;;;;;;;;;;;;;2083728;28;1251;-80
2021/07/20 00:54:09;;;;;;;;;;;;;;;;;;2084306;28;1355;-77
2021/07/20 00:55:12;;;;;;;;;;;;;;;;;;2083777;28;1219;-77
2021/07/20 00:56:12;;;;;;;;;;;;;;;;;;2083834;28;1498;-78
2021/07/20 00:57:19;;;;;;;;;;;;;;;;;;2092072;28;875;-79
2021/07/20 00:58:20;;;;;;;;;;;;;;;;;;2092696;28;843;-78
2021/07/20 00:59:22;;;;;;;;;;;;;;;;;;2091931;28;1321;-76
2021/07/20 01:00:23;;;;;;;;;;;;;;;;;;2092056;28;1113;-77
2021/07/20 01:01:27;;;;;;;;;;;;;;;;;;2091909;28;1389;-79
2021/07/20 01:02:29;;;;;;;;;;;;;;;;;;2092056;28;866;-78
2021/07/20 01:03:33;;;;;;;;;;;;;;;;;;2091913;28;1225;-78
2021/07/20 01:04:38;;;;;;;;;;;;;;;;;;2084279;28;1183;-78
2021/07/20 01:05:41;;;;;;;;;;;;;;;;;;2084060;28;1330;-77
2021/07/20 01:06:46;;;;;;;;;;;;;;;;;;2091991;28;882;-76
2021/07/20 01:07:50;;;;;;;;;;;;;;;;;;2091895;28;1212;-77
2021/07/20 01:08:52;;;;;;;;;;;;;;;;;;2083820;28;1207;-77
2021/07/20 01:09:57;;;;;;;;;;;;;;;;;;2091955;28;875;-78
2021/07/20 01:11:00;;;;;;;;;;;;;;;;;;2091866;28;1574;-78
2021/07/20 01:12:04;;;;;;;;;;;;;;;;;;2084027;28;1965;-79
2021/07/20 01:13:17;;;;;;;;;;;;;;;;;;2092228;28;1286;-78
2021/07/20 01:14:23;;;;;;;;;;;;;;;;;;2091950;28;855;-77
2021/07/20 01:15:24;;;;;;;;;;;;;;;;;;2091817;28;1211;-80
2021/07/20 01:16:27;;;;;;;;;;;;;;;;;;2083716;28;1350;-80
2021/07/20 01:17:29;;;;;;;;;;;;;;;;;;2091953;28;909;-79
2021/07/20 01:18:34;;;;;;;;;;;;;;;;;;2091815;28;1235;-80
2021/07/20 01:19:46;;;;;;;;;;;;;;;;;;2084478;28;1176;-78
2021/07/20 01:20:48;;;;;;;;;;;;;;;;;;2092026;28;883;-78
2021/07/20 01:21:51;;;;;;;;;;;;;;;;;;2092739;28;887;-76
2021/07/20 01:22:59;;;;;;;;;;;;;;;;;;2092561;28;839;-77
2021/07/20 01:24:05;;;;;;;;;;;;;;;;;;2092592;28;957;-78
2021/07/20 01:25:09;;;;;;;;;;;;;;;;;;2094579;28;818;-77
2021/07/20 01:26:11;;;;;;;;;;;;;;;;;;2094858;28;1334;-77
2021/07/20 01:27:13;;;;;;;;;;;;;;;;;;2093610;28;1335;-77
2021/07/20 01:28:17;;;;;;;;;;;;;;;;;;2091881;28;795;-77
2021/07/20 01:29:21;;;;;;;;;;;;;;;;;;2091848;28;1463;-77
2021/07/20 01:30:22;;;;;;;;;;;;;;;;;;2091865;28;902;-78
2021/07/20 01:31:27;;;;;;;;;;;;;;;;;;2092437;28;1918;-78
2021/07/20 01:32:38;;;;;;;;;;;;;;;;;;2091881;28;1222;-80
2021/07/20 01:33:41;;;;;;;;;;;;;;;;;;2083636;28;1316;-79
2021/07/20 01:34:42;;;;;;;;;;;;;;;;;;2091905;28;843;-78
2021/07/20 01:35:47;;;;;;;;;;;;;;;;;;2092448;28;881;-78
2021/07/20 01:36:49;;;;;;;;;;;;;;;;;;2091672;28;1204;-77
2021/07/20 01:37:56;;;;;;;;;;;;;;;;;;2091779;28;886;-78
2021/07/20 01:39:02;;;;;;;;;;;;;;;;;;2091647;28;1358;-80
2021/07/20 01:40:07;;;;;;;;;;;;;;;;;;2091597;28;1378;-80
2021/07/20 01:41:10;;;;;;;;;;;;;;;;;;2092491;28;890;-79
2021/07/20 01:42:14;;;;;;;;;;;;;;;;;;2091750;28;1459;-78
2021/07/20 01:43:19;;;;;;;;;;;;;;;;;;2091733;28;882;-79
2021/07/20 01:44:22;;;;;;;;;;;;;;;;;;2091647;28;1230;-78
2021/07/20 01:45:28;;;;;;;;;;;;;;;;;;2084062;28;1319;-78
2021/07/20 01:46:31;;;;;;;;;;;;;;;;;;2091558;28;882;-80
2021/07/20 01:47:32;;;;;;;;;;;;;;;;;;2091911;28;799;-79
2021/07/20 01:48:35;;;;;;;;;;;;;;;;;;2092265;28;926;-78
2021/07/20 01:49:43;;;;;;;;;;;;;;;;;;2091763;28;1458;-76
2021/07/20 01:50:45;;;;;;;;;;;;;;;;;;2091916;28;869;-77
2021/07/20 01:51:46;;;;;;;;;;;;;;;;;;2092127;28;1906;-77
2021/07/20 01:52:54;;;;;;;;;;;;;;;;;;2092475;28;858;-76
2021/07/20 01:53:59;;;;;;;;;;;;;;;;;;2091514;28;1223;-78
2021/07/20 01:55:01;;;;;;;;;;;;;;;;;;2091761;28;881;-79
2021/07/20 01:56:06;;;;;;;;;;;;;;;;;;2091516;28;1179;-79
2021/07/20 01:57:10;;;;;;;;;;;;;;;;;;2091924;28;858;-78
2021/07/20 01:58:42;;;;;;;;;;;;;;;;;;2091590;28;1345;-79
2021/07/20 02:00:02;;;;;;;;;;;;;;;;;;2091942;28;684;-77
2021/07/20 02:01:45;;;;;;;;;;;;;;;;;;2091651;28;1512;-77
2021/07/20 02:03:16;;;;;;;;;;;;;;;;;;2087162;28;1585;-79
2021/07/20 02:08:44;;;;;;;;;;;;;;;;;;2059057;28;1313;-78
2021/07/20 02:09:45;;;;;;;;;;;;;;;;;;2083522;28;1412;-78
2021/07/20 02:10:49;;;;;;;;;;;;;;;;;;2083548;28;1239;-78
2021/07/20 02:12:18;;;;;;;;;;;;;;;;;;2091631;28;1967;-78
2021/07/20 02:13:54;;;;;;;;;;;;;;;;;;2092095;28;899;-78
2021/07/20 02:15:37;;;;;;;;;;;;;;;;;;2091944;28;1229;-78
2021/07/20 02:16:54;;;;;;;;;;;;;;;;;;2092301;28;866;-78
2021/07/20 02:17:56;;;;;;;;;;;;;;;;;;2091300;28;1369;-76
2021/07/20 02:19:01;;;;;;;;;;;;;;;;;;2091554;28;875;-79
2021/07/20 02:20:25;;;;;;;;;;;;;;;;;;2092103;28;1161;-80
2021/07/20 02:21:31;;;;;;;;;;;;;;;;;;2091321;28;1339;-83
2021/07/20 02:22:34;;;;;;;;;;;;;;;;;;2091378;28;1231;-78
2021/07/20 02:23:35;;;;;;;;;;;;;;;;;;2083457;28;1453;-83
2021/07/20 02:24:38;;;;;;;;;;;;;;;;;;2083283;28;1338;-80
2021/07/20 02:25:41;;;;;;;;;;;;;;;;;;2091976;28;923;-80
2021/07/20 02:26:46;;;;;;;;;;;;;;;;;;2091814;28;1342;-81
2021/07/20 02:27:48;;;;;;;;;;;;;;;;;;2088043;28;802;-81
2021/07/20 02:29:06;;;;;;;;;;;;;;;;;;2097210;28;1214;-79
2021/07/20 02:30:10;;;;;;;;;;;;;;;;;;2088644;28;1660;-82
2021/07/20 02:31:13;;;;;;;;;;;;;;;;;;2083551;28;974;-83
2021/07/20 02:32:15;;;;;;;;;;;;;;;;;;2091290;28;1973;-82
2021/07/20 02:33:17;;;;;;;;;;;;;;;;;;2091302;28;1255;-82
2021/07/20 02:34:19;;;;;;;;;;;;;;;;;;2091337;28;863;-82
2021/07/20 02:35:23;;;;;;;;;;;;;;;;;;2092007;28;896;-81
2021/07/20 02:36:25;;;;;;;;;;;;;;;;;;2091177;28;1216;-81
2021/07/20 02:37:29;;;;;;;;;;;;;;;;;;2082998;28;1284;-84
2021/07/20 02:38:30;;;;;;;;;;;;;;;;;;2091165;28;1325;-84
2021/07/20 02:39:33;;;;;;;;;;;;;;;;;;2090863;28;861;-85
2021/07/20 02:40:34;;;;;;;;;;;;;;;;;;2090972;28;1334;-84
2021/07/20 02:41:37;;;;;;;;;;;;;;;;;;2091365;28;913;-84
2021/07/20 02:42:39;;;;;;;;;;;;;;;;;;2091165;28;1387;-82
2021/07/20 02:43:43;;;;;;;;;;;;;;;;;;2091240;28;843;-82
2021/07/20 02:44:45;;;;;;;;;;;;;;;;;;2091831;28;787;-82
2021/07/20 02:45:48;;;;;;;;;;;;;;;;;;2091789;28;775;-82
2021/07/20 02:46:49;;;;;;;;;;;;;;;;;;2091889;28;836;-80
2021/07/20 02:47:52;;;;;;;;;;;;;;;;;;2091797;28;856;-79
2021/07/20 02:48:59;;;;;;;;;;;;;;;;;;2091137;28;2069;-81
2021/07/20 02:50:02;;;;;;;;;;;;;;;;;;2091173;28;866;-81
2021/07/20 02:51:03;;;;;;;;;;;;;;;;;;2091084;28;1464;-84
2021/07/20 02:52:12;;;;;;;;;;;;;;;;;;2084006;28;1989;-82
2021/07/20 02:53:15;;;;;;;;;;;;;;;;;;2091329;28;839;-82
2021/07/20 02:54:28;;;;;;;;;;;;;;;;;;2091213;28;1274;-83
2021/07/20 02:55:30;;;;;;;;;;;;;;;;;;2082987;28;2106;-83
2021/07/20 02:56:33;;;;;;;;;;;;;;;;;;2091194;28;858;-84
2021/07/20 02:57:36;;;;;;;;;;;;;;;;;;2091876;28;803;-82
2021/07/20 02:58:42;;;;;;;;;;;;;;;;;;2091053;28;1422;-83
2021/07/20 02:59:45;;;;;;;;;;;;;;;;;;2091346;28;1370;-79
2021/07/20 03:00:51;;;;;;;;;;;;;;;;;;2091296;28;850;-77
2021/07/20 03:01:54;;;;;;;;;;;;;;;;;;2091836;28;923;-80
2021/07/20 03:02:56;;;;;;;;;;;;;;;;;;2091044;28;978;-79
2021/07/20 03:04:00;;;;;;;;;;;;;;;;;;2083061;28;1253;-80
2021/07/20 03:05:06;;;;;;;;;;;;;;;;;;2083496;28;1382;-80
2021/07/20 03:06:09;;;;;;;;;;;;;;;;;;2091050;28;889;-80
2021/07/20 03:07:12;;;;;;;;;;;;;;;;;;2091660;28;953;-81
2021/07/20 03:08:22;;;;;;;;;;;;;;;;;;2091040;28;1305;-79
2021/07/20 03:09:30;;;;;;;;;;;;;;;;;;2084084;28;1161;-79
2021/07/20 03:10:33;;;;;;;;;;;;;;;;;;2090982;28;1230;-80
2021/07/20 03:11:36;;;;;;;;;;;;;;;;;;2090940;28;1332;-79
2021/07/20 03:12:39;;;;;;;;;;;;;;;;;;2091003;28;1979;-78
2021/07/20 03:13:45;;;;;;;;;;;;;;;;;;2091617;28;891;-83
2021/07/20 03:14:46;;;;;;;;;;;;;;;;;;2091176;28;1350;-82
2021/07/20 03:15:53;;;;;;;;;;;;;;;;;;2091267;28;854;-79
2021/07/20 03:16:56;;;;;;;;;;;;;;;;;;2091662;28;799;-84
2021/07/20 03:18:00;;;;;;;;;;;;;;;;;;2091847;28;894;-81
2021/07/20 03:19:01;;;;;;;;;;;;;;;;;;2090990;28;1218;-84
2021/07/20 03:20:05;;;;;;;;;;;;;;;;;;2083356;28;1378;-83
2021/07/20 03:21:14;;;;;;;;;;;;;;;;;;2091067;28;1389;-81
2021/07/20 03:22:18;;;;;;;;;;;;;;;;;;2091321;28;870;-84
2021/07/20 03:23:26;;;;;;;;;;;;;;;;;;2091646;28;914;-79
2021/07/20 03:24:30;;;;;;;;;;;;;;;;;;2091457;28;823;-77
2021/07/20 03:25:32;;;;;;;;;;;;;;;;;;2091250;28;1406;-77
2021/07/20 03:26:36;;;;;;;;;;;;;;;;;;2083048;28;1211;-78
2021/07/20 03:27:39;;;;;;;;;;;;;;;;;;2091076;28;862;-80
2021/07/20 03:28:49;;;;;;;;;;;;;;;;;;2091055;28;1484;-80
2021/07/20 03:29:51;;;;;;;;;;;;;;;;;;2091040;28;827;-78
2021/07/20 03:30:55;;;;;;;;;;;;;;;;;;2090884;28;1211;-80
2021/07/20 03:31:59;;;;;;;;;;;;;;;;;;2092756;28;848;-77
2021/07/20 03:33:03;;;;;;;;;;;;;;;;;;2094713;28;1977;-76
2021/07/20 03:34:15;;;;;;;;;;;;;;;;;;2086611;28;1298;-78
2021/07/20 03:35:18;;;;;;;;;;;;;;;;;;2090863;28;1234;-79
2021/07/20 03:36:21;;;;;;;;;;;;;;;;;;2090943;28;890;-79
2021/07/20 03:37:23;;;;;;;;;;;;;;;;;;2091564;28;885;-80
2021/07/20 03:38:27;;;;;;;;;;;;;;;;;;2091671;28;869;-83
2021/07/20 03:39:40;;;;;;;;;;;;;;;;;;2091530;28;1461;-83
2021/07/20 03:40:42;;;;;;;;;;;;;;;;;;2091642;28;862;-81
2021/07/20 03:41:44;;;;;;;;;;;;;;;;;;2090827;28;1477;-79
2021/07/20 03:42:46;;;;;;;;;;;;;;;;;;2090909;28;852;-79
2021/07/20 03:43:54;;;;;;;;;;;;;;;;;;2091026;28;1345;-78
2021/07/20 03:44:56;;;;;;;;;;;;;;;;;;2090906;28;866;-82
2021/07/20 03:46:00;;;;;;;;;;;;;;;;;;2091524;28;878;-80
2021/07/20 03:47:03;;;;;;;;;;;;;;;;;;2090784;28;1334;-79
2021/07/20 03:48:05;;;;;;;;;;;;;;;;;;2090986;28;851;-82
2021/07/20 03:49:21;;;;;;;;;;;;;;;;;;2090843;28;1314;-76
2021/07/20 03:50:24;;;;;;;;;;;;;;;;;;2091004;28;890;-82
2021/07/20 03:51:27;;;;;;;;;;;;;;;;;;2091318;28;1254;-78
2021/07/20 03:52:29;;;;;;;;;;;;;;;;;;2084465;28;1973;-80
2021/07/20 03:53:33;;;;;;;;;;;;;;;;;;2084350;28;1346;-81
2021/07/20 03:54:35;;;;;;;;;;;;;;;;;;2084450;28;1350;-78
2021/07/20 03:55:37;;;;;;;;;;;;;;;;;;2092115;28;1449;-83
2021/07/20 03:56:41;;;;;;;;;;;;;;;;;;2091828;28;1373;-81
2021/07/20 03:57:45;;;;;;;;;;;;;;;;;;2083996;28;1448;-81
2021/07/20 03:58:48;;;;;;;;;;;;;;;;;;2083843;28;1441;-79
2021/07/20 03:59:55;;;;;;;;;;;;;;;;;;2084049;28;1454;-81
2021/07/20 04:01:23;;;;;;;;;;;;;;;;;;2092257;28;1270;-82
2021/07/20 04:02:28;;;;;;;;;;;;;;;;;;2091795;28;1424;-81
2021/07/20 04:03:36;;;;;;;;;;;;;;;;;;2082493;28;1518;-80
2021/07/20 04:04:40;;;;;;;;;;;;;;;;;;2091994;28;1350;-78
2021/07/20 04:05:44;;;;;;;;;;;;;;;;;;2092449;28;1472;-80
2021/07/20 04:06:48;;;;;;;;;;;;;;;;;;2092159;28;1498;-78
2021/07/20 04:08:12;;;;;;;;;;;;;;;;;;2086928;28;1377;-80
2021/07/20 04:09:22;;;;;;;;;;;;;;;;;;2084709;28;1429;-79
2021/07/20 04:10:42;;;;;;;;;;;;;;;;;;2090942;28;1215;-81
2021/07/20 04:12:07;;;;;;;;;;;;;;;;;;2091105;28;1374;-79
2021/07/20 04:13:36;;;;;;;;;;;;;;;;;;2084900;28;1243;-82
2021/07/20 04:14:59;;;;;;;;;;;;;;;;;;2091542;28;1230;-81
2021/07/20 04:16:06;;;;;;;;;;;;;;;;;;2091698;28;1350;-80
2021/07/20 04:17:09;;;;;;;;;;;;;;;;;;2084094;28;1424;-78
2021/07/20 04:18:11;;;;;;;;;;;;;;;;;;2089098;28;1421;-79
2021/07/20 04:19:14;;;;;;;;;;;;;;;;;;2091637;28;1353;-78
2021/07/20 04:20:36;;;;;;;;;;;;;;;;;;2090087;28;1195;-77
2021/07/20 04:21:38;;;;;;;;;;;;;;;;;;2091958;28;1377;-78
2021/07/20 04:22:40;;;;;;;;;;;;;;;;;;2083812;28;1432;-78
2021/07/20 04:23:41;;;;;;;;;;;;;;;;;;2083973;28;1708;-77
2021/07/20 04:24:48;;;;;;;;;;;;;;;;;;2084512;28;1444;-80
2021/07/20 04:25:51;;;;;;;;;;;;;;;;;;2081229;28;1338;-77
2021/07/20 04:26:54;;;;;;;;;;;;;;;;;;2083730;28;1457;-78
2021/07/20 04:27:55;;;;;;;;;;;;;;;;;;2092145;28;1397;-80
2021/07/20 04:28:57;;;;;;;;;;;;;;;;;;2092883;28;835;-80
2021/07/20 04:29:59;;;;;;;;;;;;;;;;;;2091987;28;1465;-77
2021/07/20 04:31:03;;;;;;;;;;;;;;;;;;2083670;28;1303;-80
2021/07/20 18:43:54;;;;;;;;;;;;;;;;;;2124363;27;2012;-74
2021/07/20 18:44:55;;;;;;;;;;;;;;;;;;2124057;28;890;-73
2021/07/20 18:45:56;;;;;;;;;;;;;;;;;;2123874;27;1318;-69
2021/07/20 18:46:57;;;;;;;;;;;;;;;;;;2123827;28;1401;-72
2021/07/20 18:47:59;;;;;;;;;;;;;;;;;;2121916;28;1593;-72
2021/07/20 18:48:59;;;;;;;;;;;;;;;;;;2116836;28;1675;-74
2021/07/20 18:50:01;;;;;;;;;;;;;;;;;;2115370;28;968;-76
2021/07/20 18:51:02;;;;;;;;;;;;;;;;;;2115234;28;2013;-75
2021/07/20 18:52:04;;;;;;;;;;;;;;;;;;2114017;28;1795;-74
2021/07/20 18:53:05;;;;;;;;;;;;;;;;;;2117172;28;1724;-73
2021/07/20 18:54:06;;;;;;;;;;;;;;;;;;2118146;28;1819;-73
2021/07/20 18:55:08;;;;;;;;;;;;;;;;;;2117275;28;1720;-73
2021/07/20 18:56:10;;;;;;;;;;;;;;;;;;2118119;28;1826;-73
2021/07/20 18:57:11;;;;;;;;;;;;;;;;;;2117340;28;1858;-74
2021/07/20 18:58:12;;;;;;;;;;;;;;;;;;2117659;28;1937;-73
2021/07/20 18:59:15;;;;;;;;;;;;;;;;;;2117740;28;1958;-70
2021/07/20 19:00:17;;;;;;;;;;;;;;;;;;2117659;28;1775;-72
2021/07/20 19:01:18;;;;;;;;;;;;;;;;;;2118680;28;1928;-72
2021/07/20 19:02:20;;;;;;;;;;;;;;;;;;2117575;28;1802;-73
2021/07/20 19:03:21;;;;;;;;;;;;;;;;;;2117300;28;1976;-71
2021/07/20 19:04:23;;;;;;;;;;;;;;;;;;2118016;28;1740;-73
2021/07/20 19:05:23;;;;;;;;;;;;;;;;;;2117672;28;1728;-72
2021/07/20 19:06:25;;;;;;;;;;;;;;;;;;2117526;28;1751;-73
2021/07/20 19:07:26;;;;;;;;;;;;;;;;;;2117756;28;1775;-73
2021/07/20 19:08:28;;;;;;;;;;;;;;;;;;2117617;28;1894;-71
2021/07/20 19:09:29;;;;;;;;;;;;;;;;;;2118206;28;1881;-73
2021/07/20 19:10:35;;;;;;;;;;;;;;;;;;2116956;28;1735;-73
2021/07/20 19:11:36;;;;;;;;;;;;;;;;;;2117989;28;1810;-72
2021/07/20 19:12:37;;;;;;;;;;;;;;;;;;2113901;28;1802;-71
2021/07/20 19:13:38;;;;;;;;;;;;;;;;;;2117661;28;1739;-75
2021/07/20 19:14:41;;;;;;;;;;;;;;;;;;2117433;28;1798;-72
2021/07/20 19:15:42;;;;;;;;;;;;;;;;;;2117575;28;1863;-73
2021/07/20 19:16:44;;;;;;;;;;;;;;;;;;2117469;28;1802;-73
2021/07/20 19:17:45;;;;;;;;;;;;;;;;;;2117121;28;1783;-73
2021/07/20 19:18:47;;;;;;;;;;;;;;;;;;2117577;28;1818;-72
2021/07/20 19:19:47;;;;;;;;;;;;;;;;;;2117570;28;1846;-72
2021/07/20 19:20:49;;;;;;;;;;;;;;;;;;2117418;28;1822;-73
2021/07/20 19:21:50;;;;;;;;;;;;;;;;;;2116966;28;1930;-73
2021/07/20 19:22:52;;;;;;;;;;;;;;;;;;2117361;28;1946;-70
2021/07/20 19:23:52;;;;;;;;;;;;;;;;;;2117416;28;1945;-70
2021/07/20 19:25:01;;;;;;;;;;;;;;;;;;2117371;28;1965;-74
2021/07/20 19:26:02;;;;;;;;;;;;;;;;;;2117558;28;1691;-76
2021/07/20 19:27:04;;;;;;;;;;;;;;;;;;2117377;28;1782;-74
2021/07/20 19:28:05;;;;;;;;;;;;;;;;;;2117405;28;1731;-78
2021/07/20 19:29:07;;;;;;;;;;;;;;;;;;2117453;28;1735;-74
2021/07/20 19:30:10;;;;;;;;;;;;;;;;;;2117477;28;1861;-74
2021/07/20 19:31:12;;;;;;;;;;;;;;;;;;2117008;28;1977;-75
2021/07/20 19:32:13;;;;;;;;;;;;;;;;;;2116916;28;1961;-78
2021/07/20 19:33:15;;;;;;;;;;;;;;;;;;2117496;28;2033;-75
2021/07/20 19:34:16;;;;;;;;;;;;;;;;;;2116918;28;1994;-76
2021/07/20 19:35:18;;;;;;;;;;;;;;;;;;2117464;28;1727;-74
2021/07/20 19:36:18;;;;;;;;;;;;;;;;;;2117354;28;1790;-76
2021/07/20 19:37:21;;;;;;;;;;;;;;;;;;2116903;28;1639;-78
2021/07/20 19:38:22;;;;;;;;;;;;;;;;;;2117230;27;1787;-76
2021/07/20 19:39:24;;;;;;;;;;;;;;;;;;2113853;28;1744;-76
2021/07/20 19:40:25;;;;;;;;;;;;;;;;;;2116019;28;1728;-73
2021/07/20 19:41:27;;;;;;;;;;;;;;;;;;2117504;28;1803;-75
2021/07/20 19:42:28;;;;;;;;;;;;;;;;;;2117285;28;1823;-74
2021/07/20 19:43:30;;;;;;;;;;;;;;;;;;2117232;28;1905;-72
2021/07/20 19:44:30;;;;;;;;;;;;;;;;;;2116667;28;1923;-76
2021/07/20 19:45:33;;;;;;;;;;;;;;;;;;2117779;27;1958;-77
2021/07/20 19:46:34;;;;;;;;;;;;;;;;;;2114226;28;2208;-74
2021/07/20 19:47:36;;;;;;;;;;;;;;;;;;2116208;28;1537;-74
2021/07/20 19:48:36;;;;;;;;;;;;;;;;;;2116141;28;1859;-74
2021/07/20 19:49:38;;;;;;;;;;;;;;;;;;2117347;28;1786;-74
2021/07/20 19:50:40;;;;;;;;;;;;;;;;;;2113552;28;1843;-75
2021/07/20 19:51:42;;;;;;;;;;;;;;;;;;2115252;28;1839;-73
2021/07/20 19:52:43;;;;;;;;;;;;;;;;;;2117066;28;1802;-73
2021/07/20 19:53:45;;;;;;;;;;;;;;;;;;2117326;28;1747;-73
2021/07/20 19:54:45;;;;;;;;;;;;;;;;;;2114034;28;1731;-70
2021/07/20 19:55:48;;;;;;;;;;;;;;;;;;2111706;28;1830;-73
2021/07/20 19:56:49;;;;;;;;;;;;;;;;;;2111505;28;1885;-73
2021/07/20 19:57:50;;;;;;;;;;;;;;;;;;2111623;28;1974;-73
2021/07/20 19:58:51;;;;;;;;;;;;;;;;;;2110984;28;2020;-75
2021/07/20 19:59:53;;;;;;;;;;;;;;;;;;2111568;28;1958;-72
2021/07/20 20:00:55;;;;;;;;;;;;;;;;;;2111022;28;1954;-72
2021/07/20 20:01:57;;;;;;;;;;;;;;;;;;2112309;28;1791;-74
2021/07/20 20:02:58;;;;;;;;;;;;;;;;;;2110756;28;1934;-73
2021/07/20 20:04:00;;;;;;;;;;;;;;;;;;2110897;28;1953;-79
2021/07/20 20:05:02;;;;;;;;;;;;;;;;;;2111126;28;1632;-80
2021/07/20 20:06:04;;;;;;;;;;;;;;;;;;2111304;28;1617;-79
2021/07/20 20:07:04;;;;;;;;;;;;;;;;;;2112077;28;1735;-78
2021/07/20 20:08:06;;;;;;;;;;;;;;;;;;2112509;28;1736;-80
2021/07/20 20:09:07;;;;;;;;;;;;;;;;;;2112224;28;1767;-72
2021/07/20 20:10:09;;;;;;;;;;;;;;;;;;2111425;28;1847;-80
2021/07/20 20:11:11;;;;;;;;;;;;;;;;;;2110235;28;1819;-76
2021/07/20 20:12:12;;;;;;;;;;;;;;;;;;2111062;28;1664;-78
2021/07/20 20:13:13;;;;;;;;;;;;;;;;;;2111133;28;1637;-77
2021/07/20 20:14:14;;;;;;;;;;;;;;;;;;2110976;28;1958;-69
2021/07/20 20:15:17;;;;;;;;;;;;;;;;;;2110721;28;2100;-71
2021/07/20 20:16:19;;;;;;;;;;;;;;;;;;2109648;28;1556;-68
2021/07/20 20:17:22;;;;;;;;;;;;;;;;;;2110574;28;1541;-70
2021/07/20 20:18:22;;;;;;;;;;;;;;;;;;2110710;28;1740;-70
2021/07/20 20:19:24;;;;;;;;;;;;;;;;;;2111126;28;1633;-71
2021/07/20 20:20:25;;;;;;;;;;;;;;;;;;2119218;27;1755;-71
2021/07/20 20:21:26;;;;;;;;;;;;;;;;;;2119230;27;1637;-71
2021/07/20 20:22:27;;;;;;;;;;;;;;;;;;2111464;28;1939;-71
2021/07/20 20:23:29;;;;;;;;;;;;;;;;;;2111179;28;1979;-69
2021/07/20 20:24:29;;;;;;;;;;;;;;;;;;2114670;28;1803;-73
2021/07/20 20:25:33;;;;;;;;;;;;;;;;;;2117488;28;1271;-74
2021/07/20 20:26:34;;;;;;;;;;;;;;;;;;2112254;28;1662;-71
2021/07/20 20:27:36;;;;;;;;;;;;;;;;;;2110497;28;1428;-69
2021/07/20 20:28:36;;;;;;;;;;;;;;;;;;2116645;28;1344;-69
2021/07/20 20:29:40;;;;;;;;;;;;;;;;;;2116443;28;1411;-68
2021/07/20 20:30:41;;;;;;;;;;;;;;;;;;2116216;28;1392;-70
2021/07/20 20:31:44;;;;;;;;;;;;;;;;;;2116518;28;1348;-70
2021/07/20 20:32:45;;;;;;;;;;;;;;;;;;2113978;28;1302;-69
2021/07/20 20:33:46;;;;;;;;;;;;;;;;;;2117011;28;1344;-69
2021/07/20 20:34:47;;;;;;;;;;;;;;;;;;2117028;28;1423;-69
2021/07/20 20:35:49;;;;;;;;;;;;;;;;;;2116976;28;1399;-71
2021/07/20 20:36:50;;;;;;;;;;;;;;;;;;2117008;28;1352;-71
2021/07/20 20:37:51;;;;;;;;;;;;;;;;;;2116835;28;1412;-70
2021/07/20 20:38:52;;;;;;;;;;;;;;;;;;2116181;28;1361;-69
2021/07/20 20:39:54;;;;;;;;;;;;;;;;;;2116350;28;1340;-70
2021/07/20 20:40:54;;;;;;;;;;;;;;;;;;2116911;28;1435;-71
2021/07/20 20:41:56;;;;;;;;;;;;;;;;;;2116886;28;1388;-69
2021/07/20 20:42:58;;;;;;;;;;;;;;;;;;2116668;28;1372;-69
2021/07/20 20:44:00;;;;;;;;;;;;;;;;;;2116847;28;1918;-69
2021/07/20 20:45:00;;;;;;;;;;;;;;;;;;2116878;28;1499;-69
2021/07/20 20:46:02;;;;;;;;;;;;;;;;;;2116869;27;1534;-71
2021/07/20 20:47:06;;;;;;;;;;;;;;;;;;2116819;28;1478;-68
2021/07/20 20:48:10;;;;;;;;;;;;;;;;;;2114468;28;1345;-70
2021/07/20 20:49:11;;;;;;;;;;;;;;;;;;2116857;28;1383;-69
2021/07/20 20:50:13;;;;;;;;;;;;;;;;;;2116849;28;1395;-69
2021/07/20 20:51:14;;;;;;;;;;;;;;;;;;2117032;28;1356;-69
2021/07/20 20:52:16;;;;;;;;;;;;;;;;;;2117511;28;869;-68
2021/07/20 20:53:17;;;;;;;;;;;;;;;;;;2117547;28;858;-70
2021/07/20 20:54:19;;;;;;;;;;;;;;;;;;2117561;28;878;-70
2021/07/20 20:55:20;;;;;;;;;;;;;;;;;;2117415;28;897;-70
2021/07/20 20:56:23;;;;;;;;;;;;;;;;;;2117594;28;940;-70
2021/07/20 20:57:24;;;;;;;;;;;;;;;;;;2117354;28;898;-70
2021/07/20 20:58:25;;;;;;;;;;;;;;;;;;2117361;28;945;-69
2021/07/20 20:59:26;;;;;;;;;;;;;;;;;;2117344;28;795;-69
2021/07/20 21:00:28;;;;;;;;;;;;;;;;;;2117456;28;807;-69
2021/07/20 21:01:29;;;;;;;;;;;;;;;;;;2116965;28;902;-69
2021/07/20 21:02:32;;;;;;;;;;;;;;;;;;2117054;28;810;-68
2021/07/20 21:03:32;;;;;;;;;;;;;;;;;;2116936;28;897;-69
2021/07/20 21:04:34;;;;;;;;;;;;;;;;;;2116798;28;1975;-70
2021/07/20 21:05:35;;;;;;;;;;;;;;;;;;2116910;28;941;-69
2021/07/20 21:06:37;;;;;;;;;;;;;;;;;;2116077;28;874;-68
2021/07/20 21:07:38;;;;;;;;;;;;;;;;;;2116744;28;827;-69
2021/07/20 21:08:39;;;;;;;;;;;;;;;;;;2116881;28;1089;-69
2021/07/20 21:09:40;;;;;;;;;;;;;;;;;;2116872;28;909;-69
2021/07/20 21:10:42;;;;;;;;;;;;;;;;;;2116853;28;898;-69
2021/07/20 21:11:42;;;;;;;;;;;;;;;;;;2116862;28;818;-68
2021/07/20 21:12:45;;;;;;;;;;;;;;;;;;2116919;28;925;-71
2021/07/20 21:13:45;;;;;;;;;;;;;;;;;;2116995;27;837;-69
2021/07/20 21:14:47;;;;;;;;;;;;;;;;;;2116978;28;778;-69
2021/07/20 21:15:49;;;;;;;;;;;;;;;;;;2116795;28;861;-71
2021/07/20 21:16:50;;;;;;;;;;;;;;;;;;2116806;28;814;-68
2021/07/20 21:17:52;;;;;;;;;;;;;;;;;;2116784;28;869;-68
2021/07/20 21:18:54;;;;;;;;;;;;;;;;;;2116795;28;874;-69
2021/07/20 21:19:57;;;;;;;;;;;;;;;;;;2116786;28;874;-71
2021/07/20 21:20:59;;;;;;;;;;;;;;;;;;2116818;28;798;-69
2021/07/20 21:22:00;;;;;;;;;;;;;;;;;;2116887;28;791;-71
2021/07/20 21:23:01;;;;;;;;;;;;;;;;;;2116915;28;783;-70
2021/07/20 21:24:02;;;;;;;;;;;;;;;;;;2116680;28;1894;-70
2021/07/20 21:25:05;;;;;;;;;;;;;;;;;;2116866;28;829;-69
2021/07/20 21:26:05;;;;;;;;;;;;;;;;;;2116764;28;878;-69
2021/07/20 21:27:07;;;;;;;;;;;;;;;;;;2116746;28;882;-69
2021/07/20 21:28:08;;;;;;;;;;;;;;;;;;2116827;28;881;-69
2021/07/20 21:29:10;;;;;;;;;;;;;;;;;;2116650;28;890;-70
2021/07/20 21:30:13;;;;;;;;;;;;;;;;;;2116149;28;1240;-69
2021/07/20 21:31:15;;;;;;;;;;;;;;;;;;2116151;28;921;-68
2021/07/20 21:32:17;;;;;;;;;;;;;;;;;;2116669;28;972;-70
2021/07/20 21:33:20;;;;;;;;;;;;;;;;;;2116717;28;1057;-70
2021/07/20 21:34:21;;;;;;;;;;;;;;;;;;2116700;28;878;-70
2021/07/20 21:35:23;;;;;;;;;;;;;;;;;;2116678;28;907;-69
2021/07/20 21:36:24;;;;;;;;;;;;;;;;;;2116700;28;897;-70
2021/07/20 21:37:25;;;;;;;;;;;;;;;;;;2116799;28;787;-70
2021/07/20 21:38:26;;;;;;;;;;;;;;;;;;2116677;28;779;-69
2021/07/20 21:39:28;;;;;;;;;;;;;;;;;;2116618;28;786;-69
2021/07/20 21:40:29;;;;;;;;;;;;;;;;;;2116638;28;953;-71
2021/07/20 21:41:30;;;;;;;;;;;;;;;;;;2116586;28;917;-69